sensor_id;sensor_type;location;lat;lon;timestamp;pressure;altitude;pressure_sealevel;temperature;humidity
84501;BME280;74725;44.210;17.906;2024-01-11T00:03:04;99153.50;;;2.33;82.32
84501;BME280;74725;44.210;17.906;2024-01-11T00:05:29;99147.63;;;2.31;82.44
84501;BME280;74725;44.210;17.906;2024-01-11T00:10:36;99158.03;;;2.16;82.66
84501;BME280;74725;44.210;17.906;2024-01-11T00:13:02;99150.38;;;2.18;83.09
84501;BME280;74725;44.210;17.906;2024-01-11T00:15:29;99146.50;;;2.32;82.92
84501;BME280;74725;44.210;17.906;2024-01-11T00:47:36;99143.63;;;2.12;82.93
84501;BME280;74725;44.210;17.906;2024-01-11T00:50:02;99138.63;;;2.27;82.42
84501;BME280;74725;44.210;17.906;2024-01-11T00:52:28;99144.75;;;2.39;83.14
84501;BME280;74725;44.210;17.906;2024-01-11T00:54:53;99146.88;;;2.46;81.52
84501;BME280;74725;44.210;17.906;2024-01-11T00:57:19;99149.91;;;1.88;83.71
84501;BME280;74725;44.210;17.906;2024-01-11T00:59:44;99136.03;;;2.02;83.50
84501;BME280;74725;44.210;17.906;2024-01-11T01:02:10;99145.72;;;2.03;84.08
84501;BME280;74725;44.210;17.906;2024-01-11T01:04:39;99150.84;;;2.08;83.75
84501;BME280;74725;44.210;17.906;2024-01-11T01:07:04;99150.06;;;2.08;83.97
84501;BME280;74725;44.210;17.906;2024-01-11T01:11:58;99147.06;;;2.09;83.26
84501;BME280;74725;44.210;17.906;2024-01-11T01:14:23;99137.59;;;2.31;83.39
84501;BME280;74725;44.210;17.906;2024-01-11T01:16:49;99128.41;;;2.48;83.75
84501;BME280;74725;44.210;17.906;2024-01-11T01:38:08;99142.56;;;2.29;82.51
84501;BME280;74725;44.210;17.906;2024-01-11T01:40:34;99135.88;;;2.39;82.56
84501;BME280;74725;44.210;17.906;2024-01-11T01:42:59;99136.25;;;2.53;81.80
84501;BME280;74725;44.210;17.906;2024-01-11T01:45:25;99140.19;;;2.56;82.08
84501;BME280;74725;44.210;17.906;2024-01-11T01:47:51;99135.91;;;2.55;81.44
84501;BME280;74725;44.210;17.906;2024-01-11T01:52:59;99131.28;;;2.55;81.84
84501;BME280;74725;44.210;17.906;2024-01-11T01:55:25;99137.38;;;2.36;82.18
84501;BME280;74725;44.210;17.906;2024-01-11T01:57:53;99128.84;;;2.50;81.88
84501;BME280;74725;44.210;17.906;2024-01-11T02:00:19;99133.94;;;2.39;82.38
84501;BME280;74725;44.210;17.906;2024-01-11T02:02:50;99127.00;;;2.54;81.95
84501;BME280;74725;44.210;17.906;2024-01-11T02:05:17;99133.09;;;2.51;82.12
84501;BME280;74725;44.210;17.906;2024-01-11T02:07:44;99128.84;;;2.50;82.98
84501;BME280;74725;44.210;17.906;2024-01-11T02:10:10;99127.94;;;2.30;83.03
84501;BME280;74725;44.210;17.906;2024-01-11T02:12:36;99128.91;;;2.10;83.99
84501;BME280;74725;44.210;17.906;2024-01-11T02:15:03;99125.38;;;2.22;83.30
84501;BME280;74725;44.210;17.906;2024-01-11T02:17:30;99126.25;;;2.26;82.90
84501;BME280;74725;44.210;17.906;2024-01-11T02:22:47;99120.72;;;2.50;82.85
84501;BME280;74725;44.210;17.906;2024-01-11T02:25:15;99117.06;;;2.42;83.26
84501;BME280;74725;44.210;17.906;2024-01-11T02:27:45;99122.56;;;2.46;82.07
84501;BME280;74725;44.210;17.906;2024-01-11T02:38:17;99113.09;;;2.40;82.57
84501;BME280;74725;44.210;17.906;2024-01-11T02:46:00;99103.22;;;2.44;82.84
84501;BME280;74725;44.210;17.906;2024-01-11T02:48:29;99105.38;;;2.54;81.71
84501;BME280;74725;44.210;17.906;2024-01-11T02:50:56;99107.81;;;2.43;82.34
84501;BME280;74725;44.210;17.906;2024-01-11T02:53:22;99106.84;;;2.52;82.21
84501;BME280;74725;44.210;17.906;2024-01-11T02:55:50;99099.00;;;2.47;81.67
84501;BME280;74725;44.210;17.906;2024-01-11T02:58:15;99103.50;;;2.27;83.27
84501;BME280;74725;44.210;17.906;2024-01-11T03:03:22;99105.06;;;2.56;83.21
84501;BME280;74725;44.210;17.906;2024-01-11T03:05:48;99091.25;;;2.45;83.03
84501;BME280;74725;44.210;17.906;2024-01-11T03:08:13;99095.88;;;2.44;83.73
84501;BME280;74725;44.210;17.906;2024-01-11T03:13:20;99085.22;;;2.52;83.25
84501;BME280;74725;44.210;17.906;2024-01-11T03:15:46;99100.34;;;2.53;82.94
84501;BME280;74725;44.210;17.906;2024-01-11T03:18:12;99084.53;;;2.55;82.84
84501;BME280;74725;44.210;17.906;2024-01-11T03:20:37;99085.41;;;2.59;82.88
84501;BME280;74725;44.210;17.906;2024-01-11T03:23:03;99089.25;;;2.58;82.16
84501;BME280;74725;44.210;17.906;2024-01-11T03:25:31;99090.13;;;2.62;82.24
84501;BME280;74725;44.210;17.906;2024-01-11T03:28:00;99085.75;;;2.41;83.22
84501;BME280;74725;44.210;17.906;2024-01-11T03:35:37;99071.19;;;2.62;82.65
84501;BME280;74725;44.210;17.906;2024-01-11T03:38:05;99080.53;;;2.64;82.29
84501;BME280;74725;44.210;17.906;2024-01-11T03:54:00;99065.38;;;2.60;83.02
84501;BME280;74725;44.210;17.906;2024-01-11T03:56:26;99058.53;;;2.50;83.43
84501;BME280;74725;44.210;17.906;2024-01-11T03:58:51;99050.88;;;2.52;82.92
84501;BME280;74725;44.210;17.906;2024-01-11T04:01:17;99051.47;;;2.45;83.44
84501;BME280;74725;44.210;17.906;2024-01-11T04:03:43;99056.03;;;2.57;83.15
84501;BME280;74725;44.210;17.906;2024-01-11T04:06:08;99057.59;;;2.74;82.69
84501;BME280;74725;44.210;17.906;2024-01-11T04:08:34;99046.84;;;2.78;82.30
84501;BME280;74725;44.210;17.906;2024-01-11T04:16:23;99048.09;;;2.64;82.60
84501;BME280;74725;44.210;17.906;2024-01-11T04:18:49;99051.56;;;2.65;81.79
84501;BME280;74725;44.210;17.906;2024-01-11T04:21:27;99049.56;;;2.78;81.94
84501;BME280;74725;44.210;17.906;2024-01-11T04:23:58;99043.34;;;2.93;81.33
84501;BME280;74725;44.210;17.906;2024-01-11T04:26:24;99049.63;;;2.97;81.12
84501;BME280;74725;44.210;17.906;2024-01-11T04:28:51;99047.81;;;2.69;81.12
84501;BME280;74725;44.210;17.906;2024-01-11T04:33:58;99050.69;;;2.92;80.67
84501;BME280;74725;44.210;17.906;2024-01-11T04:36:24;99044.56;;;2.96;80.85
84501;BME280;74725;44.210;17.906;2024-01-11T04:38:50;99039.78;;;2.89;81.04
84501;BME280;74725;44.210;17.906;2024-01-11T04:41:15;99053.13;;;2.82;80.99
84501;BME280;74725;44.210;17.906;2024-01-11T04:43:42;99054.09;;;2.89;80.97
84501;BME280;74725;44.210;17.906;2024-01-11T04:46:21;99049.91;;;2.92;81.58
84501;BME280;74725;44.210;17.906;2024-01-11T04:48:48;99046.13;;;2.97;81.16
84501;BME280;74725;44.210;17.906;2024-01-11T04:51:15;99052.88;;;2.87;80.66
84501;BME280;74725;44.210;17.906;2024-01-11T04:53:43;99053.66;;;2.87;81.52
84501;BME280;74725;44.210;17.906;2024-01-11T04:56:10;99055.13;;;2.85;81.88
84501;BME280;74725;44.210;17.906;2024-01-11T04:58:39;99049.91;;;2.92;81.03
84501;BME280;74725;44.210;17.906;2024-01-11T05:17:16;99031.09;;;3.50;79.64
84501;BME280;74725;44.210;17.906;2024-01-11T05:19:42;99037.66;;;3.49;78.44
84501;BME280;74725;44.210;17.906;2024-01-11T05:24:49;99033.56;;;3.39;78.99
84501;BME280;74725;44.210;17.906;2024-01-11T05:27:15;99027.66;;;3.34;79.14
84501;BME280;74725;44.210;17.906;2024-01-11T05:29:41;99016.03;;;3.33;79.58
84501;BME280;74725;44.210;17.906;2024-01-11T05:45:31;99020.84;;;2.89;81.32
84501;BME280;74725;44.210;17.906;2024-01-11T05:47:56;99014.53;;;3.01;80.97
84501;BME280;74725;44.210;17.906;2024-01-11T05:53:03;99014.66;;;2.73;82.19
84501;BME280;74725;44.210;17.906;2024-01-11T05:55:29;99013.03;;;2.68;82.47
84501;BME280;74725;44.210;17.906;2024-01-11T05:57:54;99005.41;;;2.58;82.63
84501;BME280;74725;44.210;17.906;2024-01-11T06:31:25;99016.97;;;3.06;81.21
84501;BME280;74725;44.210;17.906;2024-01-11T06:33:52;99014.41;;;3.13;80.51
84501;BME280;74725;44.210;17.906;2024-01-11T06:36:18;99003.59;;;3.13;80.23
84501;BME280;74725;44.210;17.906;2024-01-11T06:38:44;99008.78;;;3.02;80.42
84501;BME280;74725;44.210;17.906;2024-01-11T06:41:09;99003.47;;;2.90;81.14
84501;BME280;74725;44.210;17.906;2024-01-11T06:43:36;99003.84;;;2.73;81.93
84501;BME280;74725;44.210;17.906;2024-01-11T06:46:05;98999.13;;;2.85;82.07
84501;BME280;74725;44.210;17.906;2024-01-11T06:48:31;99009.97;;;3.05;81.11
84501;BME280;74725;44.210;17.906;2024-01-11T06:53:36;99020.06;;;2.88;82.01
84501;BME280;74725;44.210;17.906;2024-01-11T06:56:02;99014.38;;;2.93;81.78
84501;BME280;74725;44.210;17.906;2024-01-11T06:58:27;98998.47;;;3.08;81.29
84501;BME280;74725;44.210;17.906;2024-01-11T07:00:54;99011.81;;;3.01;81.14
84501;BME280;74725;44.210;17.906;2024-01-11T07:03:19;98995.59;;;3.01;81.08
84501;BME280;74725;44.210;17.906;2024-01-11T07:05:45;99011.50;;;3.02;81.30
84501;BME280;74725;44.210;17.906;2024-01-11T07:08:11;99012.44;;;3.10;81.10
84501;BME280;74725;44.210;17.906;2024-01-11T07:10:36;99005.09;;;3.10;81.36
84501;BME280;74725;44.210;17.906;2024-01-11T07:13:03;99013.44;;;3.21;81.10
84501;BME280;74725;44.210;17.906;2024-01-11T07:15:29;99004.72;;;3.12;81.58
84501;BME280;74725;44.210;17.906;2024-01-11T07:17:54;99017.66;;;3.18;80.33
84501;BME280;74725;44.210;17.906;2024-01-11T07:20:20;99015.03;;;3.22;80.65
84501;BME280;74725;44.210;17.906;2024-01-11T07:22:46;99019.03;;;3.12;80.74
84501;BME280;74725;44.210;17.906;2024-01-11T07:25:11;99012.41;;;3.26;81.00
84501;BME280;74725;44.210;17.906;2024-01-11T07:27:37;99012.69;;;3.40;80.43
84501;BME280;74725;44.210;17.906;2024-01-11T07:30:03;99019.69;;;3.41;80.97
84501;BME280;74725;44.210;17.906;2024-01-11T07:32:30;99003.16;;;3.46;80.25
84501;BME280;74725;44.210;17.906;2024-01-11T07:34:56;99017.16;;;3.52;80.47
84501;BME280;74725;44.210;17.906;2024-01-11T07:37:21;99018.09;;;3.59;79.67
84501;BME280;74725;44.210;17.906;2024-01-11T07:39:47;99028.00;;;3.52;80.95
84501;BME280;74725;44.210;17.906;2024-01-11T07:42:14;99021.59;;;3.60;80.13
84501;BME280;74725;44.210;17.906;2024-01-11T07:44:39;99019.09;;;3.71;79.24
84501;BME280;74725;44.210;17.906;2024-01-11T07:47:05;99031.56;;;3.75;79.15
84501;BME280;74725;44.210;17.906;2024-01-11T07:49:31;99027.88;;;3.83;78.33
84501;BME280;74725;44.210;17.906;2024-01-11T07:51:57;99029.53;;;3.88;77.87
84501;BME280;74725;44.210;17.906;2024-01-11T07:54:22;99036.97;;;3.95;78.35
84501;BME280;74725;44.210;17.906;2024-01-11T07:56:48;99035.72;;;3.88;78.45
84501;BME280;74725;44.210;17.906;2024-01-11T07:59:15;99038.19;;;4.16;77.44
84501;BME280;74725;44.210;17.906;2024-01-11T08:01:46;99030.31;;;4.31;76.84
84501;BME280;74725;44.210;17.906;2024-01-11T08:04:14;99033.25;;;4.22;77.12
84501;BME280;74725;44.210;17.906;2024-01-11T08:06:39;99019.34;;;4.24;76.84
84501;BME280;74725;44.210;17.906;2024-01-11T08:09:05;99026.38;;;4.28;76.83
84501;BME280;74725;44.210;17.906;2024-01-11T08:11:31;99027.47;;;4.24;76.64
84501;BME280;74725;44.210;17.906;2024-01-11T08:13:58;99030.91;;;4.44;76.34
84501;BME280;74725;44.210;17.906;2024-01-11T08:16:24;99029.34;;;4.43;76.14
84501;BME280;74725;44.210;17.906;2024-01-11T08:18:50;99025.75;;;4.58;76.06
84501;BME280;74725;44.210;17.906;2024-01-11T08:21:15;99028.63;;;4.69;75.29
84501;BME280;74725;44.210;17.906;2024-01-11T08:23:41;99039.50;;;4.72;75.32
84501;BME280;74725;44.210;17.906;2024-01-11T08:26:13;99034.19;;;4.79;74.48
84501;BME280;74725;44.210;17.906;2024-01-11T08:28:39;99029.03;;;4.71;74.78
84501;BME280;74725;44.210;17.906;2024-01-11T08:31:05;99032.59;;;4.75;75.39
84501;BME280;74725;44.210;17.906;2024-01-11T08:33:31;99025.84;;;4.65;74.36
84501;BME280;74725;44.210;17.906;2024-01-11T08:35:57;99022.97;;;4.54;75.34
84501;BME280;74725;44.210;17.906;2024-01-11T08:38:23;99022.59;;;4.33;75.72
84501;BME280;74725;44.210;17.906;2024-01-11T08:40:51;99024.78;;;4.47;76.16
84501;BME280;74725;44.210;17.906;2024-01-11T08:43:17;99028.72;;;4.53;76.29
84501;BME280;74725;44.210;17.906;2024-01-11T08:45:42;99027.19;;;4.52;75.77
84501;BME280;74725;44.210;17.906;2024-01-11T08:48:09;99024.72;;;4.43;75.05
84501;BME280;74725;44.210;17.906;2024-01-11T08:50:35;99030.31;;;4.54;75.58
84501;BME280;74725;44.210;17.906;2024-01-11T08:53:00;99034.16;;;4.53;74.53
84501;BME280;74725;44.210;17.906;2024-01-11T08:55:26;99027.75;;;4.64;75.05
84501;BME280;74725;44.210;17.906;2024-01-11T08:57:52;99024.59;;;4.59;74.04
84501;BME280;74725;44.210;17.906;2024-01-11T09:00:18;99016.63;;;4.70;73.04
84501;BME280;74725;44.210;17.906;2024-01-11T09:02:44;99022.09;;;4.73;71.76
84501;BME280;74725;44.210;17.906;2024-01-11T09:05:09;99026.97;;;4.87;71.23
84501;BME280;74725;44.210;17.906;2024-01-11T09:07:35;99019.72;;;4.95;69.01
84501;BME280;74725;44.210;17.906;2024-01-11T09:10:01;99022.59;;;5.05;68.96
84501;BME280;74725;44.210;17.906;2024-01-11T09:12:26;99012.88;;;5.04;68.24
84501;BME280;74725;44.210;17.906;2024-01-11T09:14:52;99006.34;;;5.09;67.98
84501;BME280;74725;44.210;17.906;2024-01-11T09:17:18;99002.91;;;5.12;69.02
84501;BME280;74725;44.210;17.906;2024-01-11T09:19:43;99007.84;;;5.06;68.50
84501;BME280;74725;44.210;17.906;2024-01-11T09:22:09;99006.50;;;4.93;69.56
84501;BME280;74725;44.210;17.906;2024-01-11T09:24:35;99001.28;;;4.81;68.85
84501;BME280;74725;44.210;17.906;2024-01-11T09:27:01;99001.91;;;4.97;69.85
84501;BME280;74725;44.210;17.906;2024-01-11T09:29:27;99002.81;;;5.05;69.12
84501;BME280;74725;44.210;17.906;2024-01-11T09:31:53;98994.44;;;5.17;68.17
84501;BME280;74725;44.210;17.906;2024-01-11T09:34:19;98991.44;;;5.26;68.51
84501;BME280;74725;44.210;17.906;2024-01-11T09:36:44;98994.78;;;5.12;68.04
84501;BME280;74725;44.210;17.906;2024-01-11T09:39:10;98984.25;;;5.10;68.20
84501;BME280;74725;44.210;17.906;2024-01-11T09:41:42;98977.78;;;5.19;68.28
84501;BME280;74725;44.210;17.906;2024-01-11T09:44:09;98977.69;;;5.42;67.69
84501;BME280;74725;44.210;17.906;2024-01-11T09:46:35;98971.72;;;5.29;68.99
84501;BME280;74725;44.210;17.906;2024-01-11T09:49:02;98970.25;;;5.35;68.68
84501;BME280;74725;44.210;17.906;2024-01-11T09:51:29;98962.00;;;5.58;66.76
84501;BME280;74725;44.210;17.906;2024-01-11T09:53:55;98961.59;;;5.59;65.47
84501;BME280;74725;44.210;17.906;2024-01-11T09:56:24;98947.09;;;5.82;65.45
84501;BME280;74725;44.210;17.906;2024-01-11T09:58:52;98950.72;;;5.26;66.85
84501;BME280;74725;44.210;17.906;2024-01-11T10:01:18;98954.59;;;5.25;66.40
84501;BME280;74725;44.210;17.906;2024-01-11T10:03:44;98946.53;;;5.32;67.25
84501;BME280;74725;44.210;17.906;2024-01-11T10:06:12;98948.50;;;5.05;67.10
84501;BME280;74725;44.210;17.906;2024-01-11T10:08:39;98938.75;;;5.00;68.37
84501;BME280;74725;44.210;17.906;2024-01-11T10:11:05;98938.06;;;4.77;69.13
84501;BME280;74725;44.210;17.906;2024-01-11T10:13:31;98924.97;;;4.86;68.73
84501;BME280;74725;44.210;17.906;2024-01-11T10:16:09;98936.09;;;5.04;67.95
84501;BME280;74725;44.210;17.906;2024-01-11T10:18:44;98940.81;;;5.10;67.75
84501;BME280;74725;44.210;17.906;2024-01-11T10:21:09;98917.09;;;5.37;67.30
84501;BME280;74725;44.210;17.906;2024-01-11T10:23:36;98921.22;;;5.58;66.92
84501;BME280;74725;44.210;17.906;2024-01-11T10:26:02;98921.03;;;5.77;66.13
84501;BME280;74725;44.210;17.906;2024-01-11T10:28:28;98918.03;;;5.86;66.42
84501;BME280;74725;44.210;17.906;2024-01-11T10:30:54;98916.25;;;6.01;64.92
84501;BME280;74725;44.210;17.906;2024-01-11T10:33:20;98908.97;;;6.16;62.56
84501;BME280;74725;44.210;17.906;2024-01-11T10:35:49;98907.16;;;6.30;61.66
84501;BME280;74725;44.210;17.906;2024-01-11T10:38:18;98894.75;;;6.33;61.23
84501;BME280;74725;44.210;17.906;2024-01-11T10:40:44;98897.03;;;6.24;61.66
84501;BME280;74725;44.210;17.906;2024-01-11T10:43:10;98901.34;;;6.28;61.98
84501;BME280;74725;44.210;17.906;2024-01-11T10:45:37;98895.41;;;6.19;60.79
84501;BME280;74725;44.210;17.906;2024-01-11T10:48:16;98892.38;;;6.24;60.30
84501;BME280;74725;44.210;17.906;2024-01-11T10:50:46;98886.72;;;6.03;60.70
84501;BME280;74725;44.210;17.906;2024-01-11T10:53:46;98886.41;;;5.71;62.46
84501;BME280;74725;44.210;17.906;2024-01-11T10:56:15;98879.72;;;5.61;62.82
84501;BME280;74725;44.210;17.906;2024-01-11T10:58:44;98877.22;;;5.82;62.86
84501;BME280;74725;44.210;17.906;2024-01-11T11:01:13;98870.78;;;5.98;62.79
84501;BME280;74725;44.210;17.906;2024-01-11T11:03:40;98871.63;;;6.05;61.32
84501;BME280;74725;44.210;17.906;2024-01-11T11:06:08;98860.88;;;6.20;62.60
84501;BME280;74725;44.210;17.906;2024-01-11T11:08:36;98865.59;;;6.33;62.03
84501;BME280;74725;44.210;17.906;2024-01-11T11:11:03;98872.69;;;6.45;61.19
84501;BME280;74725;44.210;17.906;2024-01-11T11:13:32;98862.63;;;6.53;59.53
84501;BME280;74725;44.210;17.906;2024-01-11T11:16:00;98860.72;;;6.57;61.12
84501;BME280;74725;44.210;17.906;2024-01-11T11:18:27;98856.00;;;6.50;59.93
84501;BME280;74725;44.210;17.906;2024-01-11T11:20:53;98843.31;;;6.13;60.05
84501;BME280;74725;44.210;17.906;2024-01-11T11:23:19;98834.34;;;6.09;61.03
84501;BME280;74725;44.210;17.906;2024-01-11T11:25:47;98830.91;;;6.16;61.65
84501;BME280;74725;44.210;17.906;2024-01-11T11:28:14;98825.88;;;6.18;62.06
84501;BME280;74725;44.210;17.906;2024-01-11T11:30:41;98832.84;;;6.12;62.29
84501;BME280;74725;44.210;17.906;2024-01-11T11:33:09;98832.59;;;6.35;61.48
84501;BME280;74725;44.210;17.906;2024-01-11T11:35:36;98831.97;;;6.59;60.42
84501;BME280;74725;44.210;17.906;2024-01-11T11:38:02;98823.78;;;6.56;58.97
84501;BME280;74725;44.210;17.906;2024-01-11T11:40:38;98810.53;;;6.51;59.48
84501;BME280;74725;44.210;17.906;2024-01-11T11:43:06;98818.19;;;6.34;59.96
84501;BME280;74725;44.210;17.906;2024-01-11T11:45:32;98806.97;;;6.40;59.84
84501;BME280;74725;44.210;17.906;2024-01-11T11:47:57;98810.44;;;6.36;59.69
84501;BME280;74725;44.210;17.906;2024-01-11T11:50:24;98790.69;;;6.43;60.37
84501;BME280;74725;44.210;17.906;2024-01-11T11:52:56;98798.13;;;6.57;60.56
84501;BME280;74725;44.210;17.906;2024-01-11T11:55:25;98796.25;;;6.72;60.52
84501;BME280;74725;44.210;17.906;2024-01-11T11:57:52;98792.78;;;6.78;59.05
84501;BME280;74725;44.210;17.906;2024-01-11T12:00:22;98795.00;;;6.51;59.33
84501;BME280;74725;44.210;17.906;2024-01-11T12:02:49;98798.56;;;6.66;58.64
84501;BME280;74725;44.210;17.906;2024-01-11T12:05:16;98780.81;;;6.21;59.90
84501;BME280;74725;44.210;17.906;2024-01-11T12:07:44;98775.03;;;6.29;61.39
84501;BME280;74725;44.210;17.906;2024-01-11T12:10:10;98763.16;;;6.59;61.21
84501;BME280;74725;44.210;17.906;2024-01-11T12:12:36;98764.69;;;6.56;60.55
84501;BME280;74725;44.210;17.906;2024-01-11T12:15:04;98760.78;;;6.47;61.00
84501;BME280;74725;44.210;17.906;2024-01-11T12:17:30;98759.69;;;6.73;59.96
84501;BME280;74725;44.210;17.906;2024-01-11T12:19:55;98744.56;;;6.82;59.06
84501;BME280;74725;44.210;17.906;2024-01-11T12:22:21;98755.88;;;6.95;57.79
84501;BME280;74725;44.210;17.906;2024-01-11T12:24:47;98751.63;;;6.98;59.44
84501;BME280;74725;44.210;17.906;2024-01-11T12:27:13;98748.13;;;7.04;57.49
84501;BME280;74725;44.210;17.906;2024-01-11T12:29:39;98744.53;;;6.72;58.44
84501;BME280;74725;44.210;17.906;2024-01-11T12:32:05;98748.34;;;6.53;59.87
84501;BME280;74725;44.210;17.906;2024-01-11T12:34:31;98736.31;;;6.57;59.34
84501;BME280;74725;44.210;17.906;2024-01-11T12:36:58;98732.34;;;6.41;60.94
84501;BME280;74725;44.210;17.906;2024-01-11T12:39:26;98739.38;;;6.45;60.65
84501;BME280;74725;44.210;17.906;2024-01-11T12:41:54;98740.09;;;6.31;61.31
84501;BME280;74725;44.210;17.906;2024-01-11T12:44:21;98737.31;;;6.21;61.82
84501;BME280;74725;44.210;17.906;2024-01-11T12:46:48;98734.03;;;5.94;62.25
84501;BME280;74725;44.210;17.906;2024-01-11T12:49:15;98718.03;;;5.85;64.20
84501;BME280;74725;44.210;17.906;2024-01-11T12:51:41;98718.41;;;5.83;65.25
84501;BME280;74725;44.210;17.906;2024-01-11T12:54:13;98719.75;;;6.07;64.50
84501;BME280;74725;44.210;17.906;2024-01-11T12:56:45;98721.28;;;6.01;62.71
84501;BME280;74725;44.210;17.906;2024-01-11T12:59:10;98713.38;;;5.85;64.67
84501;BME280;74725;44.210;17.906;2024-01-11T13:01:38;98706.84;;;5.94;63.38
84501;BME280;74725;44.210;17.906;2024-01-11T13:04:04;98714.41;;;5.67;64.73
84501;BME280;74725;44.210;17.906;2024-01-11T13:06:30;98701.06;;;5.47;65.26
84501;BME280;74725;44.210;17.906;2024-01-11T13:08:56;98700.34;;;5.54;65.94
84501;BME280;74725;44.210;17.906;2024-01-11T13:11:22;98702.28;;;5.57;65.47
84501;BME280;74725;44.210;17.906;2024-01-11T13:13:50;98697.69;;;5.64;65.39
84501;BME280;74725;44.210;17.906;2024-01-11T13:16:17;98699.84;;;5.41;65.58
84501;BME280;74725;44.210;17.906;2024-01-11T13:18:44;98700.31;;;5.06;66.99
84501;BME280;74725;44.210;17.906;2024-01-11T13:21:11;98695.88;;;5.28;67.58
84501;BME280;74725;44.210;17.906;2024-01-11T13:23:39;98687.88;;;5.49;65.84
84501;BME280;74725;44.210;17.906;2024-01-11T13:26:06;98695.94;;;5.35;65.24
84501;BME280;74725;44.210;17.906;2024-01-11T13:28:33;98690.78;;;5.23;66.32
84501;BME280;74725;44.210;17.906;2024-01-11T13:30:59;98693.31;;;5.01;66.00
84501;BME280;74725;44.210;17.906;2024-01-11T13:33:25;98680.28;;;5.21;65.61
84501;BME280;74725;44.210;17.906;2024-01-11T13:35:50;98686.75;;;5.06;65.40
84501;BME280;74725;44.210;17.906;2024-01-11T13:38:16;98681.03;;;5.18;65.80
84501;BME280;74725;44.210;17.906;2024-01-11T13:40:42;98674.88;;;5.21;66.00
84501;BME280;74725;44.210;17.906;2024-01-11T13:43:09;98676.41;;;5.22;65.60
84501;BME280;74725;44.210;17.906;2024-01-11T13:45:37;98680.44;;;5.39;65.83
84501;BME280;74725;44.210;17.906;2024-01-11T13:48:04;98680.91;;;5.48;65.65
84501;BME280;74725;44.210;17.906;2024-01-11T13:50:31;98696.81;;;5.50;65.71
84501;BME280;74725;44.210;17.906;2024-01-11T13:52:57;98685.56;;;5.51;64.86
84501;BME280;74725;44.210;17.906;2024-01-11T13:55:23;98688.22;;;5.40;65.20
84501;BME280;74725;44.210;17.906;2024-01-11T13:57:50;98680.13;;;5.48;65.64
84501;BME280;74725;44.210;17.906;2024-01-11T14:00:17;98680.91;;;5.52;65.66
84501;BME280;74725;44.210;17.906;2024-01-11T14:02:44;98686.00;;;5.57;65.00
84501;BME280;74725;44.210;17.906;2024-01-11T14:05:13;98677.00;;;5.49;65.13
84501;BME280;74725;44.210;17.906;2024-01-11T14:07:40;98686.69;;;5.43;66.22
84501;BME280;74725;44.210;17.906;2024-01-11T14:10:07;98691.81;;;5.55;66.28
84501;BME280;74725;44.210;17.906;2024-01-11T14:12:34;98692.47;;;5.42;65.24
84501;BME280;74725;44.210;17.906;2024-01-11T14:15:04;98697.38;;;5.25;66.03
84501;BME280;74725;44.210;17.906;2024-01-11T14:17:31;98685.31;;;5.15;66.71
84501;BME280;74725;44.210;17.906;2024-01-11T14:19:57;98686.09;;;4.79;68.97
84501;BME280;74725;44.210;17.906;2024-01-11T14:22:23;98684.97;;;4.46;70.41
84501;BME280;74725;44.210;17.906;2024-01-11T14:24:49;98691.78;;;4.33;70.02
84501;BME280;74725;44.210;17.906;2024-01-11T14:27:15;98688.38;;;4.39;70.85
84501;BME280;74725;44.210;17.906;2024-01-11T14:29:41;98682.72;;;4.52;71.09
84501;BME280;74725;44.210;17.906;2024-01-11T14:32:06;98685.06;;;4.53;69.39
84501;BME280;74725;44.210;17.906;2024-01-11T14:34:32;98690.16;;;4.58;71.19
84501;BME280;74725;44.210;17.906;2024-01-11T14:36:58;98694.00;;;4.24;70.19
84501;BME280;74725;44.210;17.906;2024-01-11T14:39:24;98693.31;;;4.30;71.00
84501;BME280;74725;44.210;17.906;2024-01-11T14:41:52;98692.03;;;4.21;71.12
84501;BME280;74725;44.210;17.906;2024-01-11T14:44:17;98680.44;;;4.24;71.00
84501;BME280;74725;44.210;17.906;2024-01-11T14:46:43;98686.66;;;4.24;71.15
84501;BME280;74725;44.210;17.906;2024-01-11T14:49:10;98684.47;;;4.37;71.51
84501;BME280;74725;44.210;17.906;2024-01-11T14:51:35;98686.97;;;4.19;72.72
84501;BME280;74725;44.210;17.906;2024-01-11T14:54:03;98687.13;;;4.33;72.32
84501;BME280;74725;44.210;17.906;2024-01-11T14:56:32;98677.81;;;4.31;71.85
84501;BME280;74725;44.210;17.906;2024-01-11T14:58:57;98679.75;;;4.30;71.67
84501;BME280;74725;44.210;17.906;2024-01-11T15:01:23;98672.84;;;4.36;71.67
84501;BME280;74725;44.210;17.906;2024-01-11T15:03:49;98673.66;;;4.40;71.79
84501;BME280;74725;44.210;17.906;2024-01-11T15:06:15;98674.66;;;4.25;71.54
84501;BME280;74725;44.210;17.906;2024-01-11T15:08:40;98687.19;;;4.37;71.89
84501;BME280;74725;44.210;17.906;2024-01-11T15:11:07;98688.28;;;4.32;71.88
84501;BME280;74725;44.210;17.906;2024-01-11T15:13:33;98686.25;;;4.26;72.78
84501;BME280;74725;44.210;17.906;2024-01-11T15:16:00;98677.38;;;3.95;72.77
84501;BME280;74725;44.210;17.906;2024-01-11T15:18:26;98675.44;;;3.96;73.25
84501;BME280;74725;44.210;17.906;2024-01-11T15:20:51;98667.31;;;3.96;72.74
84501;BME280;74725;44.210;17.906;2024-01-11T15:23:18;98676.28;;;4.00;72.89
84501;BME280;74725;44.210;17.906;2024-01-11T15:25:44;98669.69;;;4.01;73.78
84501;BME280;74725;44.210;17.906;2024-01-11T15:28:11;98682.53;;;4.04;72.58
84501;BME280;74725;44.210;17.906;2024-01-11T15:30:36;98678.78;;;4.15;72.74
84501;BME280;74725;44.210;17.906;2024-01-11T15:33:02;98671.25;;;4.32;72.01
84501;BME280;74725;44.210;17.906;2024-01-11T15:35:28;98667.41;;;4.36;71.63
84501;BME280;74725;44.210;17.906;2024-01-11T15:37:55;98675.19;;;4.38;71.75
84501;BME280;74725;44.210;17.906;2024-01-11T15:40:21;98669.19;;;4.22;71.88
84501;BME280;74725;44.210;17.906;2024-01-11T15:42:46;98670.03;;;4.29;71.28
84501;BME280;74725;44.210;17.906;2024-01-11T15:45:12;98680.94;;;4.33;71.75
84501;BME280;74725;44.210;17.906;2024-01-11T15:47:38;98673.97;;;4.32;70.90
84501;BME280;74725;44.210;17.906;2024-01-11T15:50:04;98663.19;;;4.39;71.00
84501;BME280;74725;44.210;17.906;2024-01-11T15:52:36;98675.47;;;4.29;70.65